createdAt,value
2017-08-18T00:00:45.552Z,3.53
2017-08-18T00:03:13.872Z,3.97
2017-08-18T00:05:41.430Z,3.20
2017-08-18T00:08:08.983Z,3.60
2017-08-18T00:10:36.511Z,3.93
2017-08-18T00:13:04.058Z,4.07
2017-08-18T00:15:31.582Z,3.73
2017-08-18T00:17:59.134Z,4.00
2017-08-18T00:20:43.904Z,3.80
2017-08-18T00:23:11.452Z,3.83
2017-08-18T00:25:38.973Z,3.70
2017-08-18T00:28:07.287Z,4.10
2017-08-18T00:30:34.811Z,3.70
2017-08-18T00:33:03.125Z,3.80
2017-08-18T00:35:30.659Z,4.37
2017-08-18T00:37:58.987Z,4.03
2017-08-18T00:40:26.510Z,3.93
2017-08-18T00:42:54.039Z,4.10
2017-08-18T00:45:21.586Z,3.57
2017-08-18T00:47:49.111Z,3.53
2017-08-18T00:50:16.658Z,3.60
2017-08-18T00:52:44.182Z,3.63
2017-08-18T00:55:12.506Z,3.70
2017-08-18T00:57:40.039Z,4.37
2017-08-18T01:00:07.594Z,3.90
2017-08-18T01:02:35.131Z,4.30
2017-08-18T01:05:02.686Z,4.00
2017-08-18T01:07:30.205Z,4.67
2017-08-18T01:09:57.747Z,4.30
2017-08-18T01:12:25.272Z,4.57
2017-08-18T01:14:53.595Z,4.50
2017-08-18T01:17:21.118Z,4.70
2017-08-18T01:19:49.432Z,4.33
2017-08-18T01:22:16.962Z,4.53
2017-08-18T01:24:45.274Z,4.17
2017-08-18T01:27:12.795Z,4.53
2017-08-18T01:29:41.115Z,4.13
2017-08-18T01:32:08.651Z,3.73
2017-08-18T01:34:36.207Z,3.93
2017-08-18T01:37:03.739Z,5.17
2017-08-18T01:39:32.070Z,5.03
2017-08-18T01:41:59.591Z,4.50
2017-08-18T01:44:27.882Z,4.80
2017-08-18T01:46:55.435Z,4.30
2017-08-18T01:49:22.959Z,4.53
2017-08-18T01:51:50.502Z,4.10
2017-08-18T01:54:18.022Z,4.80
2017-08-18T01:56:45.575Z,3.90
2017-08-18T01:59:13.135Z,4.00
2017-08-18T02:01:40.687Z,3.90
2017-08-18T02:04:08.975Z,4.67
2017-08-18T02:06:36.523Z,4.10
2017-08-18T02:09:04.046Z,4.40
2017-08-18T02:11:31.595Z,4.67
2017-08-18T02:13:59.128Z,4.73
2017-08-18T02:16:26.679Z,4.70
2017-08-18T02:18:54.199Z,4.33
2017-08-18T02:21:22.536Z,4.07
2017-08-18T02:23:50.059Z,4.30
2017-08-18T02:26:17.610Z,3.90
2017-08-18T02:28:45.907Z,4.33
2017-08-18T02:31:13.731Z,3.93
2017-08-18T02:33:43.192Z,4.30
2017-08-18T02:36:10.859Z,4.23
2017-08-18T02:38:38.391Z,6.20
2017-08-18T02:41:05.946Z,5.90
2017-08-18T02:43:34.241Z,5.53
2017-08-18T02:46:01.791Z,5.10
2017-08-18T02:48:29.327Z,5.50
2017-08-18T02:50:57.619Z,4.33
2017-08-18T02:53:25.935Z,3.80
2017-08-18T02:55:53.462Z,3.73
2017-08-18T02:58:21.010Z,3.57
2017-08-18T03:00:49.314Z,3.70
2017-08-18T03:03:16.866Z,3.97
2017-08-18T03:05:44.399Z,3.50
2017-08-18T03:08:12.720Z,3.83
2017-08-18T03:10:40.248Z,4.13
2017-08-18T03:13:08.574Z,4.30
2017-08-18T03:15:36.094Z,4.53
2017-08-18T03:18:03.648Z,4.43
2017-08-18T03:20:31.187Z,3.60
2017-08-18T03:22:59.497Z,3.90
2017-08-18T03:25:27.022Z,4.57
2017-08-18T03:27:54.569Z,4.87
2017-08-18T03:30:22.094Z,3.87
2017-08-18T03:32:49.643Z,3.97
2017-08-18T03:35:17.175Z,3.90
2017-08-18T03:37:44.724Z,3.73
2017-08-18T03:40:13.023Z,4.20
2017-08-18T03:42:40.577Z,4.07
2017-08-18T03:45:08.098Z,2.90
2017-08-18T03:47:35.628Z,3.70
2017-08-18T03:50:03.183Z,3.50
2017-08-18T03:52:30.706Z,4.03
2017-08-18T03:54:58.256Z,3.60
2017-08-18T03:57:26.554Z,4.10
2017-08-18T03:59:54.111Z,3.83
2017-08-18T04:02:21.642Z,4.20
2017-08-18T04:04:49.187Z,3.60
2017-08-18T04:07:16.711Z,3.60
2017-08-18T04:09:44.283Z,3.70
2017-08-18T04:12:11.814Z,3.80
2017-08-18T04:14:39.367Z,4.63
2017-08-18T04:17:07.676Z,4.20
2017-08-18T04:19:35.226Z,4.07
2017-08-18T04:22:02.759Z,3.83
2017-08-18T04:24:31.100Z,4.17
2017-08-18T04:26:58.618Z,4.07
2017-08-18T04:29:26.168Z,3.87
2017-08-18T04:31:53.695Z,3.67
2017-08-18T04:34:21.238Z,3.70
2017-08-18T04:36:48.765Z,4.03
2017-08-18T04:39:16.339Z,4.73
2017-08-18T04:41:43.866Z,4.43
2017-08-18T04:44:11.414Z,4.50
2017-08-18T04:46:39.705Z,3.83
2017-08-18T04:49:07.255Z,4.70
2017-08-18T04:51:35.541Z,4.30
2017-08-18T04:54:03.070Z,4.57
2017-08-18T04:56:31.387Z,4.07
2017-08-18T04:58:58.918Z,3.93
2017-08-18T05:01:27.238Z,4.00
2017-08-18T05:03:54.758Z,3.60
2017-08-18T05:06:23.075Z,4.00
2017-08-18T05:08:50.598Z,3.50
2017-08-18T05:11:18.920Z,3.60
2017-08-18T05:13:46.510Z,3.80
2017-08-18T05:16:14.062Z,4.20
2017-08-18T05:18:41.586Z,3.40
2017-08-18T05:21:09.139Z,4.27
2017-08-18T05:23:36.658Z,3.87
2017-08-18T05:26:04.973Z,4.13
2017-08-18T05:28:32.498Z,3.60
2017-08-18T05:31:00.818Z,4.27
2017-08-18T05:33:28.348Z,4.40
2017-08-18T05:35:56.663Z,4.67
2017-08-18T05:38:24.196Z,6.43
2017-08-18T05:40:51.758Z,7.90
2017-08-18T05:43:19.291Z,6.90
2017-08-18T05:45:47.611Z,7.90
2017-08-18T05:48:15.137Z,7.93
2017-08-18T05:50:43.439Z,8.43
2017-08-18T05:53:10.995Z,6.83
2017-08-18T05:55:38.523Z,5.50
2017-08-18T05:58:06.078Z,5.37
2017-08-18T06:00:33.594Z,3.70
2017-08-18T06:03:01.141Z,3.63
2017-08-18T06:05:28.674Z,3.30
2017-08-18T06:07:57.022Z,3.80
2017-08-18T06:10:24.546Z,3.40
2017-08-18T06:12:52.091Z,3.83
2017-08-18T06:15:19.619Z,3.77
2017-08-18T06:17:47.931Z,4.10
2017-08-18T06:20:15.463Z,4.00
2017-08-18T06:22:43.771Z,3.97
2017-08-18T06:25:11.308Z,4.07
2017-08-18T06:27:38.863Z,3.90
2017-08-18T06:30:06.393Z,3.93
2017-08-18T06:32:33.938Z,3.77
2017-08-18T06:35:01.462Z,3.30
2017-08-18T06:37:29.018Z,3.83
2017-08-18T06:39:56.548Z,3.50
2017-08-18T06:42:24.869Z,3.40
2017-08-18T06:44:52.390Z,3.27
2017-08-18T06:47:20.706Z,2.80
2017-08-18T06:49:48.231Z,3.00
2017-08-18T06:52:15.779Z,3.47
2017-08-18T06:54:44.078Z,2.93
2017-08-18T06:57:11.631Z,3.20
2017-08-18T06:59:39.918Z,3.20
2017-08-18T07:02:07.439Z,4.20
2017-08-18T07:04:34.978Z,3.30
2017-08-18T07:07:02.503Z,3.07
2017-08-18T07:09:30.050Z,3.43
2017-08-18T07:11:57.578Z,3.20
2017-08-18T07:14:25.126Z,2.80
2017-08-18T07:16:52.661Z,2.50
2017-08-18T07:19:20.211Z,2.70
2017-08-18T07:21:47.735Z,3.13
2017-08-18T07:24:16.052Z,3.00
2017-08-18T07:26:43.577Z,2.80
2017-08-18T07:29:11.894Z,2.90
2017-08-18T07:31:39.467Z,2.90
2017-08-18T07:34:07.015Z,2.87
2017-08-18T07:36:34.539Z,2.90
2017-08-18T07:39:02.091Z,2.73
2017-08-18T07:41:30.385Z,3.00
2017-08-18T07:43:57.933Z,2.60
2017-08-18T07:46:26.222Z,2.50
2017-08-18T07:48:53.770Z,2.80
2017-08-18T07:51:22.065Z,3.00
2017-08-18T07:53:55.694Z,2.50
2017-08-18T07:56:23.223Z,3.27
2017-08-18T07:58:50.754Z,2.60
2017-08-18T08:01:18.311Z,2.90
2017-08-18T08:03:46.608Z,2.47
2017-08-18T08:06:14.943Z,2.43
2017-08-18T08:08:42.497Z,2.03
2017-08-18T08:11:10.047Z,2.30
2017-08-18T08:13:37.578Z,2.13
2017-08-18T08:16:05.141Z,2.33
2017-08-18T08:18:32.671Z,2.30
2017-08-18T08:21:01.003Z,2.30
2017-08-18T08:23:28.552Z,2.30
2017-08-18T08:25:56.127Z,2.20
2017-08-18T08:28:23.658Z,2.23
2017-08-18T08:30:51.214Z,2.00
2017-08-18T08:33:18.739Z,2.30
2017-08-18T08:35:47.043Z,1.90
2017-08-18T08:38:14.591Z,2.40
2017-08-18T08:40:42.140Z,2.10
2017-08-18T08:43:10.470Z,2.20
2017-08-18T08:45:38.000Z,2.50
2017-08-18T08:48:05.552Z,2.20
2017-08-18T08:50:33.843Z,2.17
2017-08-18T08:53:01.394Z,2.47
2017-08-18T08:55:28.918Z,2.30
2017-08-18T08:57:56.466Z,2.63
2017-08-18T09:00:24.023Z,2.10
2017-08-18T09:02:51.555Z,1.80
2017-08-18T09:05:19.208Z,2.60
2017-08-18T09:07:46.768Z,2.40
2017-08-18T09:10:14.290Z,2.40
2017-08-18T09:12:41.842Z,2.10
2017-08-18T09:15:09.364Z,2.20
2017-08-18T09:17:36.910Z,2.03
2017-08-18T09:20:04.438Z,2.13
2017-08-18T09:22:32.751Z,2.50
2017-08-18T09:25:00.274Z,2.80
2017-08-18T09:27:28.601Z,2.17
2017-08-18T09:29:56.130Z,2.57
2017-08-18T09:32:23.662Z,2.43
2017-08-18T09:34:51.984Z,2.10
2017-08-18T09:37:19.507Z,2.40
2017-08-18T09:39:47.824Z,2.17
2017-08-18T09:42:15.354Z,2.00
2017-08-18T09:44:42.915Z,2.40
2017-08-18T09:47:10.443Z,2.30
2017-08-18T09:49:49.806Z,2.00
2017-08-18T09:52:23.915Z,2.70
2017-08-18T09:55:04.268Z,2.10
2017-08-18T09:57:44.466Z,2.37
2017-08-18T10:00:12.019Z,2.60
2017-08-18T10:02:39.543Z,2.20
2017-08-18T10:05:07.854Z,2.53
2017-08-18T10:07:35.375Z,1.90
2017-08-18T10:10:03.699Z,2.10
2017-08-18T10:12:31.228Z,2.67
2017-08-18T10:14:59.546Z,1.93
2017-08-18T10:17:27.086Z,1.90
2017-08-18T10:19:54.619Z,1.80
2017-08-18T10:22:22.931Z,1.90
2017-08-18T10:24:50.459Z,2.00
2017-08-18T10:27:18.775Z,1.70
2017-08-18T10:29:46.301Z,1.97
2017-08-18T10:32:14.614Z,2.10
2017-08-18T10:34:42.146Z,2.03
2017-08-18T10:37:09.694Z,1.90
2017-08-18T10:39:37.983Z,2.00
2017-08-18T10:42:05.526Z,2.10
2017-08-18T10:44:33.815Z,3.50
2017-08-18T10:47:01.362Z,4.20
2017-08-18T10:49:29.659Z,2.50
2017-08-18T10:51:57.219Z,3.47
2017-08-18T10:54:24.751Z,2.33
2017-08-18T10:56:53.050Z,4.17
2017-08-18T10:59:20.595Z,2.50
2017-08-18T11:01:48.891Z,3.60
2017-08-18T11:04:16.447Z,2.50
2017-08-18T11:06:44.003Z,2.17
2017-08-18T11:09:11.527Z,1.80
2017-08-18T11:11:39.075Z,1.80
2017-08-18T11:14:06.594Z,1.87
2017-08-18T11:16:34.147Z,2.33
2017-08-18T11:19:01.675Z,2.13
2017-08-18T11:21:29.229Z,2.47
2017-08-18T11:23:56.754Z,4.57
2017-08-18T11:26:24.311Z,4.83
2017-08-18T11:28:51.867Z,4.00
2017-08-18T11:31:19.409Z,2.93
2017-08-18T11:33:46.951Z,2.57
2017-08-18T11:36:14.478Z,3.20
2017-08-18T11:38:42.042Z,3.03
2017-08-18T11:41:09.571Z,4.00
2017-08-18T11:43:37.121Z,4.53
2017-08-18T11:46:05.604Z,3.13
2017-08-18T11:48:33.188Z,2.20
2017-08-18T11:51:00.715Z,3.57
2017-08-18T11:53:28.263Z,2.27
2017-08-18T11:55:55.791Z,2.67
2017-08-18T11:58:23.344Z,3.60
2017-08-18T12:00:50.877Z,2.80
2017-08-18T12:03:18.424Z,3.20
2017-08-18T12:05:45.946Z,3.40
2017-08-18T12:08:14.263Z,2.10
2017-08-18T12:10:41.905Z,3.20
2017-08-18T12:13:09.463Z,3.50
2017-08-18T12:15:36.987Z,2.00
2017-08-18T12:18:04.534Z,3.57
2017-08-18T12:20:32.059Z,3.90
2017-08-18T12:22:59.606Z,2.37
2017-08-18T12:25:27.132Z,4.40
2017-08-18T12:27:55.463Z,3.90
2017-08-18T12:30:23.000Z,3.70
2017-08-18T12:32:50.542Z,3.10
2017-08-18T12:35:18.854Z,3.03
2017-08-18T12:37:49.629Z,3.03
2017-08-18T12:40:17.235Z,3.77
2017-08-18T12:42:44.760Z,2.53
2017-08-18T12:45:13.071Z,3.73
2017-08-18T12:47:40.594Z,4.43
2017-08-18T12:50:08.188Z,3.50
2017-08-18T12:52:35.770Z,4.93
2017-08-18T12:55:03.318Z,4.10
2017-08-18T12:57:30.838Z,3.73
2017-08-18T12:59:59.186Z,4.03
2017-08-18T13:02:26.705Z,3.60
2017-08-18T13:04:54.255Z,2.83
2017-08-18T13:07:21.787Z,3.17
2017-08-18T13:09:49.332Z,2.67
2017-08-18T13:12:16.856Z,2.30
2017-08-18T13:14:44.429Z,2.83
2017-08-18T13:17:11.967Z,2.27
2017-08-18T13:19:39.519Z,2.07
2017-08-18T13:22:07.042Z,2.20
2017-08-18T13:24:34.596Z,1.97
2017-08-18T13:27:02.120Z,2.40
2017-08-18T13:29:29.649Z,2.30
2017-08-18T13:31:57.194Z,2.07
2017-08-18T13:34:25.486Z,2.00
2017-08-18T13:36:53.039Z,1.97
2017-08-18T13:39:20.578Z,2.40
2017-08-18T13:41:48.126Z,2.03
2017-08-18T13:44:15.655Z,1.97
2017-08-18T13:46:43.211Z,1.70
2017-08-18T13:49:10.762Z,1.80
2017-08-18T13:51:38.302Z,1.70
2017-08-18T13:54:05.851Z,2.03
2017-08-18T13:56:34.153Z,2.60
2017-08-18T13:59:01.675Z,2.03
2017-08-18T14:01:29.218Z,1.97
2017-08-18T14:03:56.739Z,2.13
2017-08-18T14:06:24.287Z,2.00
2017-08-18T14:08:51.810Z,2.17
2017-08-18T14:11:19.359Z,2.63
2017-08-18T14:13:46.882Z,2.50
2017-08-18T14:16:14.430Z,2.70
2017-08-18T14:18:41.951Z,2.40
2017-08-18T14:21:10.283Z,2.90
2017-08-18T14:23:38.755Z,2.60
2017-08-18T14:26:11.914Z,2.80
2017-08-18T14:28:40.202Z,2.00
2017-08-18T14:31:07.734Z,2.13
2017-08-18T14:33:35.288Z,1.80
2017-08-18T14:36:02.811Z,1.93
2017-08-18T14:38:30.371Z,2.50
2017-08-18T14:40:57.898Z,2.33
2017-08-18T14:43:25.443Z,2.27
2017-08-18T14:45:53.739Z,2.10
2017-08-18T14:48:21.282Z,2.27
2017-08-18T14:50:48.803Z,2.17
2017-08-18T14:53:16.359Z,2.00
2017-08-18T14:55:43.884Z,1.90
2017-08-18T14:58:11.440Z,2.00
2017-08-18T15:00:38.967Z,2.17
2017-08-18T15:03:07.296Z,2.10
2017-08-18T15:05:34.814Z,2.20
2017-08-18T15:08:03.151Z,3.33
2017-08-18T15:10:30.687Z,3.73
2017-08-18T15:12:58.323Z,2.10
2017-08-18T15:15:25.854Z,3.50
2017-08-18T15:17:53.411Z,3.10
2017-08-18T15:20:20.941Z,2.30
2017-08-18T15:22:48.471Z,3.30
2017-08-18T15:25:16.022Z,2.90
2017-08-18T15:27:43.547Z,3.10
2017-08-18T15:30:11.090Z,2.90
2017-08-18T15:32:38.614Z,2.60
2017-08-18T15:35:06.174Z,2.20
2017-08-18T15:37:33.694Z,3.37
2017-08-18T15:40:01.247Z,2.37
2017-08-18T15:42:28.897Z,2.40
2017-08-18T15:44:56.478Z,3.03
2017-08-18T15:47:24.006Z,2.50
2017-08-18T15:49:51.550Z,2.60
2017-08-18T15:52:19.074Z,3.70
2017-08-18T15:54:47.396Z,2.70
2017-08-18T15:57:14.997Z,2.83
2017-08-18T15:59:43.315Z,3.50
2017-08-18T16:02:10.839Z,2.80
2017-08-18T16:04:38.390Z,3.13
2017-08-18T16:07:05.915Z,2.83
2017-08-18T16:09:33.467Z,1.93
2017-08-18T16:12:00.994Z,2.77
2017-08-18T16:14:28.559Z,2.80
2017-08-18T16:16:56.095Z,1.97
2017-08-18T16:19:27.259Z,3.60
2017-08-18T16:21:54.825Z,1.90
2017-08-18T16:24:22.367Z,1.70
2017-08-18T16:26:50.679Z,3.33
2017-08-18T16:29:18.231Z,1.90
2017-08-18T16:31:45.787Z,2.23
2017-08-18T16:34:13.317Z,3.80
2017-08-18T16:36:41.626Z,2.00
2017-08-18T16:39:09.160Z,1.80
2017-08-18T16:41:37.489Z,1.70
2017-08-18T16:44:05.015Z,1.53
2017-08-18T16:46:32.569Z,1.70
2017-08-18T16:49:00.103Z,1.97
2017-08-18T16:51:28.421Z,1.93
2017-08-18T16:53:55.971Z,1.87
2017-08-18T16:56:23.522Z,1.80
2017-08-18T16:58:51.048Z,2.23
2017-08-18T17:01:18.590Z,1.90
2017-08-18T17:03:46.115Z,2.20
2017-08-18T17:06:13.667Z,1.90
2017-08-18T17:08:41.199Z,1.97
2017-08-18T17:11:09.514Z,2.30
2017-08-18T17:13:37.043Z,2.03
2017-08-18T17:16:05.338Z,2.03
2017-08-18T17:18:32.886Z,1.90
2017-08-18T17:21:01.187Z,1.80
2017-08-18T17:23:28.736Z,1.90
2017-08-18T17:25:56.300Z,1.90
2017-08-18T17:28:23.865Z,1.70
2017-08-18T17:30:51.403Z,1.83
2017-08-18T17:33:19.726Z,1.57
2017-08-18T17:35:47.254Z,1.70
2017-08-18T17:38:14.808Z,1.60
2017-08-18T17:40:42.434Z,2.00
2017-08-18T17:43:09.999Z,1.80
2017-08-18T17:45:37.523Z,1.70
2017-08-18T17:48:05.071Z,2.00
2017-08-18T17:50:32.594Z,2.17
2017-08-18T17:53:00.942Z,2.00
2017-08-18T17:55:28.468Z,1.80
2017-08-18T17:57:56.454Z,2.20
2017-08-18T18:00:23.981Z,3.30
2017-08-18T18:02:51.532Z,2.67
2017-08-18T18:05:19.070Z,2.90
2017-08-18T18:07:46.631Z,3.90
2017-08-18T18:10:14.159Z,2.53
2017-08-18T18:12:41.683Z,2.90
2017-08-18T18:15:09.239Z,3.53
2017-08-18T18:17:36.761Z,2.60
2017-08-18T18:20:04.307Z,2.93
2017-08-18T18:22:31.838Z,2.93
2017-08-18T18:24:59.387Z,2.50
2017-08-18T18:27:26.926Z,3.37
2017-08-18T18:29:54.486Z,3.70
2017-08-18T18:32:22.011Z,2.30
2017-08-18T18:34:49.562Z,3.43
2017-08-18T18:37:17.092Z,2.47
2017-08-18T18:39:44.652Z,2.20
2017-08-18T18:42:12.171Z,2.20
2017-08-18T18:44:40.491Z,2.50
2017-08-18T18:47:08.023Z,2.50
2017-08-18T18:49:35.575Z,2.20
2017-08-18T18:52:03.872Z,2.20
2017-08-18T18:54:31.425Z,2.20
2017-08-18T18:56:58.954Z,2.40
2017-08-18T18:59:26.515Z,2.83
2017-08-18T19:01:54.817Z,2.50
2017-08-18T19:04:22.379Z,2.60
2017-08-18T19:06:49.910Z,2.10
2017-08-18T19:09:17.470Z,3.37
2017-08-18T19:11:45.763Z,2.90
2017-08-18T19:14:14.066Z,2.80
2017-08-18T19:16:41.611Z,2.43
2017-08-18T19:19:09.139Z,2.40
2017-08-18T19:21:36.695Z,2.93
2017-08-18T19:24:04.223Z,3.50
2017-08-18T19:26:31.769Z,2.67
2017-08-18T19:28:59.291Z,2.73
2017-08-18T19:31:27.609Z,3.13
2017-08-18T19:33:55.135Z,2.93
2017-08-18T19:36:23.451Z,3.17
2017-08-18T19:38:50.979Z,2.80
2017-08-18T19:41:18.528Z,2.80
2017-08-18T19:43:46.814Z,2.70
2017-08-18T19:46:14.360Z,3.00
2017-08-18T19:48:42.652Z,2.60
2017-08-18T19:51:10.197Z,2.60
2017-08-18T19:53:37.735Z,2.70
2017-08-18T19:56:05.296Z,37.53
2017-08-18T19:58:32.822Z,62.30
2017-08-18T20:01:00.407Z,84.33
2017-08-18T20:03:27.936Z,14.53
2017-08-18T20:05:55.466Z,4.90
2017-08-18T20:08:23.018Z,3.97
2017-08-18T20:10:51.314Z,3.37
2017-08-18T20:13:18.866Z,2.83
2017-08-18T20:15:46.399Z,3.73
2017-08-18T20:18:13.943Z,3.57
2017-08-18T20:20:41.463Z,3.33
2017-08-18T20:23:09.014Z,3.90
2017-08-18T20:25:36.543Z,2.73
2017-08-18T20:28:04.854Z,3.50
2017-08-18T20:30:32.374Z,3.70
2017-08-18T20:32:59.926Z,3.47
2017-08-18T20:35:27.486Z,3.93
2017-08-18T20:37:55.043Z,3.27
2017-08-18T20:40:22.564Z,3.17
2017-08-18T20:42:50.115Z,3.30
2017-08-18T20:45:17.642Z,3.40
2017-08-18T20:47:45.967Z,3.10
2017-08-18T20:50:13.495Z,3.30
2017-08-18T20:52:41.052Z,3.10
2017-08-18T20:55:08.592Z,4.27
2017-08-18T20:57:36.914Z,3.00
2017-08-18T21:00:04.435Z,4.87
2017-08-18T21:02:32.761Z,4.30
2017-08-18T21:05:00.295Z,3.27
2017-08-18T21:07:27.847Z,4.77
2017-08-18T21:09:55.373Z,3.93
2017-08-18T21:12:22.931Z,3.00
2017-08-18T21:14:50.455Z,4.27
2017-08-18T21:17:17.974Z,3.60
2017-08-18T21:19:46.301Z,3.77
2017-08-18T21:22:13.833Z,4.67
2017-08-18T21:24:41.394Z,3.03
2017-08-18T21:27:08.914Z,3.90
2017-08-18T21:29:36.471Z,4.70
2017-08-18T21:32:04.005Z,3.03
2017-08-18T21:34:31.550Z,3.20
2017-08-18T21:36:59.503Z,3.77
2017-08-18T21:39:27.051Z,4.10
2017-08-18T21:41:54.574Z,4.20
2017-08-18T21:44:22.119Z,3.60
2017-08-18T21:46:49.648Z,3.33
2017-08-18T21:49:17.195Z,3.20
2017-08-18T21:51:44.718Z,4.00
2017-08-18T21:54:12.266Z,4.30
2017-08-18T21:56:39.794Z,4.70
2017-08-18T21:59:07.345Z,4.30
2017-08-18T22:01:34.878Z,3.77
2017-08-18T22:04:03.199Z,4.40
2017-08-18T22:06:30.725Z,4.47
2017-08-18T22:08:58.337Z,4.33
2017-08-18T22:11:25.882Z,3.73
2017-08-18T22:13:53.415Z,4.00
2017-08-18T22:16:21.286Z,4.30
2017-08-18T22:18:48.848Z,4.00
2017-08-18T22:21:16.395Z,4.17
2017-08-18T22:23:43.936Z,4.83
2017-08-18T22:26:12.254Z,5.03
2017-08-18T22:28:39.791Z,3.43
2017-08-18T22:51:16.582Z,6.97
2017-08-18T22:53:44.880Z,5.57
2017-08-18T22:56:12.434Z,6.27
2017-08-18T22:58:39.966Z,6.00
2017-08-18T23:01:08.282Z,5.30
2017-08-18T23:03:35.815Z,4.93
2017-08-18T23:06:04.139Z,5.20
2017-08-18T23:08:31.663Z,6.00
2017-08-18T23:10:59.219Z,5.70
2017-08-18T23:13:27.520Z,4.77
2017-08-18T23:15:55.068Z,4.83
2017-08-18T23:18:22.617Z,4.10
2017-08-18T23:20:50.183Z,4.43
2017-08-18T23:23:17.727Z,3.83
2017-08-18T23:25:46.029Z,3.90
2017-08-18T23:28:13.594Z,4.60
2017-08-18T23:30:41.126Z,4.40
2017-08-18T23:33:09.460Z,5.00
2017-08-18T23:35:36.990Z,3.90
2017-08-18T23:38:04.547Z,4.33
2017-08-18T23:40:32.079Z,4.13
2017-08-18T23:42:59.641Z,3.83
2017-08-18T23:45:27.936Z,4.20
2017-08-18T23:47:55.484Z,4.57
2017-08-18T23:50:23.778Z,4.37
2017-08-18T23:52:51.330Z,4.27
2017-08-18T23:55:18.868Z,4.20
2017-08-18T23:57:47.187Z,4.80
